sensor_id;sensor_type;location;lat;lon;timestamp;temperature;humidity
38582;DHT22;24349;53.720;10.014;2023-04-01T00:01:37;10.50;99.90
38582;DHT22;24349;53.720;10.014;2023-04-01T00:04:03;10.50;99.90
38582;DHT22;24349;53.720;10.014;2023-04-01T00:06:29;10.50;99.90
38582;DHT22;24349;53.720;10.014;2023-04-01T00:08:55;10.50;99.90
38582;DHT22;24349;53.720;10.014;2023-04-01T00:11:20;10.50;99.90
38582;DHT22;24349;53.720;10.014;2023-04-01T00:13:47;10.50;99.90
38582;DHT22;24349;53.720;10.014;2023-04-01T00:16:13;10.50;99.90
38582;DHT22;24349;53.720;10.014;2023-04-01T00:18:38;10.50;99.90
38582;DHT22;24349;53.720;10.014;2023-04-01T00:21:05;10.50;99.90
38582;DHT22;24349;53.720;10.014;2023-04-01T00:23:31;10.50;99.90
38582;DHT22;24349;53.720;10.014;2023-04-01T00:25:59;10.50;99.90
38582;DHT22;24349;53.720;10.014;2023-04-01T00:28:26;10.40;99.90
38582;DHT22;24349;53.720;10.014;2023-04-01T00:30:52;10.50;99.90
38582;DHT22;24349;53.720;10.014;2023-04-01T00:33:17;10.50;99.90
38582;DHT22;24349;53.720;10.014;2023-04-01T00:35:43;10.40;99.90
38582;DHT22;24349;53.720;10.014;2023-04-01T00:38:09;10.40;99.90
38582;DHT22;24349;53.720;10.014;2023-04-01T00:40:42;10.40;99.90
38582;DHT22;24349;53.720;10.014;2023-04-01T00:43:16;10.40;99.90
38582;DHT22;24349;53.720;10.014;2023-04-01T00:45:45;10.40;99.90
38582;DHT22;24349;53.720;10.014;2023-04-01T00:48:24;10.40;99.90
38582;DHT22;24349;53.720;10.014;2023-04-01T00:51:16;10.40;99.90
38582;DHT22;24349;53.720;10.014;2023-04-01T00:53:45;10.50;99.90
38582;DHT22;24349;53.720;10.014;2023-04-01T00:56:15;10.40;99.90
38582;DHT22;24349;53.720;10.014;2023-04-01T00:58:46;10.40;99.90
38582;DHT22;24349;53.720;10.014;2023-04-01T01:01:13;10.40;99.90
38582;DHT22;24349;53.720;10.014;2023-04-01T01:03:39;10.40;99.90
38582;DHT22;24349;53.720;10.014;2023-04-01T01:06:31;10.40;99.90
38582;DHT22;24349;53.720;10.014;2023-04-01T01:09:30;10.40;99.90
38582;DHT22;24349;53.720;10.014;2023-04-01T01:12:21;10.40;99.90
38582;DHT22;24349;53.720;10.014;2023-04-01T01:15:12;10.40;99.90
38582;DHT22;24349;53.720;10.014;2023-04-01T01:23:23;10.30;99.90
38582;DHT22;24349;53.720;10.014;2023-04-01T01:26:09;10.30;99.90
38582;DHT22;24349;53.720;10.014;2023-04-01T01:36:55;10.30;99.90
38582;DHT22;24349;53.720;10.014;2023-04-01T01:39:25;10.30;99.90
38582;DHT22;24349;53.720;10.014;2023-04-01T01:41:53;10.20;99.90
38582;DHT22;24349;53.720;10.014;2023-04-01T01:44:21;10.20;99.90
38582;DHT22;24349;53.720;10.014;2023-04-01T01:46:48;10.30;99.90
38582;DHT22;24349;53.720;10.014;2023-04-01T01:49:15;10.30;99.90
38582;DHT22;24349;53.720;10.014;2023-04-01T01:51:43;10.30;99.90
38582;DHT22;24349;53.720;10.014;2023-04-01T01:54:21;10.30;99.90
38582;DHT22;24349;53.720;10.014;2023-04-01T01:56:50;10.30;99.90
38582;DHT22;24349;53.720;10.014;2023-04-01T01:59:17;10.30;99.90
38582;DHT22;24349;53.720;10.014;2023-04-01T02:01:49;10.20;99.90
38582;DHT22;24349;53.720;10.014;2023-04-01T02:04:17;10.30;99.90
38582;DHT22;24349;53.720;10.014;2023-04-01T02:07:04;10.20;99.90
38582;DHT22;24349;53.720;10.014;2023-04-01T02:09:31;10.30;99.90
38582;DHT22;24349;53.720;10.014;2023-04-01T02:12:03;10.30;99.90
38582;DHT22;24349;53.720;10.014;2023-04-01T02:17:19;10.30;99.90
38582;DHT22;24349;53.720;10.014;2023-04-01T02:22:49;10.20;99.90
38582;DHT22;24349;53.720;10.014;2023-04-01T02:25:22;10.20;99.90
38582;DHT22;24349;53.720;10.014;2023-04-01T02:27:48;10.30;99.90
38582;DHT22;24349;53.720;10.014;2023-04-01T02:30:16;10.30;99.90
38582;DHT22;24349;53.720;10.014;2023-04-01T02:32:42;10.20;99.90
38582;DHT22;24349;53.720;10.014;2023-04-01T02:35:14;10.30;99.90
38582;DHT22;24349;53.720;10.014;2023-04-01T02:37:42;10.20;99.90
38582;DHT22;24349;53.720;10.014;2023-04-01T02:40:13;10.30;99.90
38582;DHT22;24349;53.720;10.014;2023-04-01T02:42:39;10.30;99.90
38582;DHT22;24349;53.720;10.014;2023-04-01T02:45:06;10.30;99.90
38582;DHT22;24349;53.720;10.014;2023-04-01T02:47:32;10.30;99.90
38582;DHT22;24349;53.720;10.014;2023-04-01T02:49:58;10.30;99.90
38582;DHT22;24349;53.720;10.014;2023-04-01T02:52:28;10.30;99.90
38582;DHT22;24349;53.720;10.014;2023-04-01T02:54:54;10.30;99.90
38582;DHT22;24349;53.720;10.014;2023-04-01T02:57:20;10.30;99.90
38582;DHT22;24349;53.720;10.014;2023-04-01T02:59:46;10.20;99.90
38582;DHT22;24349;53.720;10.014;2023-04-01T03:02:12;10.30;99.90
38582;DHT22;24349;53.720;10.014;2023-04-01T03:04:37;10.20;99.90
38582;DHT22;24349;53.720;10.014;2023-04-01T03:07:03;10.30;99.90
38582;DHT22;24349;53.720;10.014;2023-04-01T03:09:29;10.30;99.90
38582;DHT22;24349;53.720;10.014;2023-04-01T03:11:55;10.30;99.90
38582;DHT22;24349;53.720;10.014;2023-04-01T03:14:21;10.30;99.90
38582;DHT22;24349;53.720;10.014;2023-04-01T03:16:47;10.30;99.90
38582;DHT22;24349;53.720;10.014;2023-04-01T03:19:12;10.20;99.90
38582;DHT22;24349;53.720;10.014;2023-04-01T03:21:38;10.20;99.90
38582;DHT22;24349;53.720;10.014;2023-04-01T03:24:04;10.20;99.90
38582;DHT22;24349;53.720;10.014;2023-04-01T03:26:29;10.20;99.90
38582;DHT22;24349;53.720;10.014;2023-04-01T03:28:55;10.20;99.90
38582;DHT22;24349;53.720;10.014;2023-04-01T03:31:21;10.20;99.90
38582;DHT22;24349;53.720;10.014;2023-04-01T03:33:47;10.20;99.90
38582;DHT22;24349;53.720;10.014;2023-04-01T03:36:13;10.20;99.90
38582;DHT22;24349;53.720;10.014;2023-04-01T03:38:44;10.20;99.90
38582;DHT22;24349;53.720;10.014;2023-04-01T03:41:14;10.30;99.90
38582;DHT22;24349;53.720;10.014;2023-04-01T03:43:40;10.30;99.90
38582;DHT22;24349;53.720;10.014;2023-04-01T03:46:06;10.30;99.90
38582;DHT22;24349;53.720;10.014;2023-04-01T03:48:31;10.30;99.90
38582;DHT22;24349;53.720;10.014;2023-04-01T03:50:57;10.30;99.90
38582;DHT22;24349;53.720;10.014;2023-04-01T03:53:23;10.30;99.90
38582;DHT22;24349;53.720;10.014;2023-04-01T03:55:48;10.20;99.90
38582;DHT22;24349;53.720;10.014;2023-04-01T03:58:16;10.00;99.90
38582;DHT22;24349;53.720;10.014;2023-04-01T04:00:42;9.80;99.90
38582;DHT22;24349;53.720;10.014;2023-04-01T04:03:07;9.70;99.90
38582;DHT22;24349;53.720;10.014;2023-04-01T04:05:33;9.60;99.90
38582;DHT22;24349;53.720;10.014;2023-04-01T04:07:58;9.50;99.90
38582;DHT22;24349;53.720;10.014;2023-04-01T04:10:24;9.50;99.90
38582;DHT22;24349;53.720;10.014;2023-04-01T04:12:51;9.40;99.90
38582;DHT22;24349;53.720;10.014;2023-04-01T04:15:17;9.30;99.90
38582;DHT22;24349;53.720;10.014;2023-04-01T04:17:44;9.30;99.90
38582;DHT22;24349;53.720;10.014;2023-04-01T04:20:10;9.30;99.90
38582;DHT22;24349;53.720;10.014;2023-04-01T04:22:35;9.20;99.90
38582;DHT22;24349;53.720;10.014;2023-04-01T04:25:01;9.10;99.90
38582;DHT22;24349;53.720;10.014;2023-04-01T04:27:26;9.10;99.90
38582;DHT22;24349;53.720;10.014;2023-04-01T04:29:52;9.10;99.90
38582;DHT22;24349;53.720;10.014;2023-04-01T04:32:18;9.00;99.90
38582;DHT22;24349;53.720;10.014;2023-04-01T04:34:43;8.90;99.90
38582;DHT22;24349;53.720;10.014;2023-04-01T04:37:09;8.90;99.90
38582;DHT22;24349;53.720;10.014;2023-04-01T04:39:35;8.80;99.90
38582;DHT22;24349;53.720;10.014;2023-04-01T04:42:00;8.80;99.90
38582;DHT22;24349;53.720;10.014;2023-04-01T04:44:26;8.70;99.90
38582;DHT22;24349;53.720;10.014;2023-04-01T04:46:52;8.70;99.90
38582;DHT22;24349;53.720;10.014;2023-04-01T04:49:17;8.70;99.90
38582;DHT22;24349;53.720;10.014;2023-04-01T04:51:43;8.60;99.90
38582;DHT22;24349;53.720;10.014;2023-04-01T04:54:09;8.50;99.90
38582;DHT22;24349;53.720;10.014;2023-04-01T04:56:34;8.50;99.90
38582;DHT22;24349;53.720;10.014;2023-04-01T04:59:01;8.40;99.90
38582;DHT22;24349;53.720;10.014;2023-04-01T05:01:27;8.30;99.90
38582;DHT22;24349;53.720;10.014;2023-04-01T05:03:52;8.30;99.90
38582;DHT22;24349;53.720;10.014;2023-04-01T05:06:20;8.30;99.90
38582;DHT22;24349;53.720;10.014;2023-04-01T05:08:46;8.30;99.90
38582;DHT22;24349;53.720;10.014;2023-04-01T05:11:14;8.30;99.90
38582;DHT22;24349;53.720;10.014;2023-04-01T05:13:41;8.20;99.90
38582;DHT22;24349;53.720;10.014;2023-04-01T05:16:11;8.10;99.90
38582;DHT22;24349;53.720;10.014;2023-04-01T05:18:37;8.10;99.90
38582;DHT22;24349;53.720;10.014;2023-04-01T05:21:02;8.10;99.90
38582;DHT22;24349;53.720;10.014;2023-04-01T05:23:30;8.00;99.90
38582;DHT22;24349;53.720;10.014;2023-04-01T05:25:56;8.00;99.90
38582;DHT22;24349;53.720;10.014;2023-04-01T05:28:22;8.00;99.90
38582;DHT22;24349;53.720;10.014;2023-04-01T05:30:47;8.00;99.90
38582;DHT22;24349;53.720;10.014;2023-04-01T05:33:13;7.90;99.90
38582;DHT22;24349;53.720;10.014;2023-04-01T05:35:40;7.90;99.90
38582;DHT22;24349;53.720;10.014;2023-04-01T05:38:05;7.80;99.90
38582;DHT22;24349;53.720;10.014;2023-04-01T05:40:32;7.80;99.90
38582;DHT22;24349;53.720;10.014;2023-04-01T05:42:58;7.70;99.90
38582;DHT22;24349;53.720;10.014;2023-04-01T05:45:24;7.70;99.90
38582;DHT22;24349;53.720;10.014;2023-04-01T05:47:50;7.60;99.90
38582;DHT22;24349;53.720;10.014;2023-04-01T05:50:16;7.60;99.90
38582;DHT22;24349;53.720;10.014;2023-04-01T05:52:42;7.50;99.90
38582;DHT22;24349;53.720;10.014;2023-04-01T05:55:08;7.50;99.90
38582;DHT22;24349;53.720;10.014;2023-04-01T05:57:34;7.40;99.90
38582;DHT22;24349;53.720;10.014;2023-04-01T06:00:00;7.40;99.90
38582;DHT22;24349;53.720;10.014;2023-04-01T06:02:25;7.40;99.90
38582;DHT22;24349;53.720;10.014;2023-04-01T06:05:02;7.30;99.90
38582;DHT22;24349;53.720;10.014;2023-04-01T06:07:28;7.30;99.90
38582;DHT22;24349;53.720;10.014;2023-04-01T06:09:54;7.20;99.90
38582;DHT22;24349;53.720;10.014;2023-04-01T06:12:40;7.20;99.90
38582;DHT22;24349;53.720;10.014;2023-04-01T06:18:01;7.30;99.90
38582;DHT22;24349;53.720;10.014;2023-04-01T06:34:57;7.00;99.90
38582;DHT22;24349;53.720;10.014;2023-04-01T06:38:09;6.90;99.90
38582;DHT22;24349;53.720;10.014;2023-04-01T06:43:25;6.80;99.90
38582;DHT22;24349;53.720;10.014;2023-04-01T06:51:16;6.90;99.90
38582;DHT22;24349;53.720;10.014;2023-04-01T06:54:01;6.80;99.90
38582;DHT22;24349;53.720;10.014;2023-04-01T06:56:29;6.90;99.90
38582;DHT22;24349;53.720;10.014;2023-04-01T06:59:00;6.90;99.90
38582;DHT22;24349;53.720;10.014;2023-04-01T07:01:39;6.80;99.90
38582;DHT22;24349;53.720;10.014;2023-04-01T07:07:05;6.70;99.90
38582;DHT22;24349;53.720;10.014;2023-04-01T07:09:39;6.70;99.90
38582;DHT22;24349;53.720;10.014;2023-04-01T07:14:56;6.60;99.90
38582;DHT22;24349;53.720;10.014;2023-04-01T07:17:30;6.60;99.90
38582;DHT22;24349;53.720;10.014;2023-04-01T07:20:11;6.60;99.90
38582;DHT22;24349;53.720;10.014;2023-04-01T07:22:45;6.60;99.90
38582;DHT22;24349;53.720;10.014;2023-04-01T07:27:44;6.60;99.90
38582;DHT22;24349;53.720;10.014;2023-04-01T07:30:46;6.60;99.90
38582;DHT22;24349;53.720;10.014;2023-04-01T07:33:39;6.60;99.90
38582;DHT22;24349;53.720;10.014;2023-04-01T07:36:13;6.60;99.90
38582;DHT22;24349;53.720;10.014;2023-04-01T07:38:49;6.70;99.90
38582;DHT22;24349;53.720;10.014;2023-04-01T07:47:41;6.60;99.90
38582;DHT22;24349;53.720;10.014;2023-04-01T07:50:27;6.60;99.90
38582;DHT22;24349;53.720;10.014;2023-04-01T07:53:03;6.70;99.90
38582;DHT22;24349;53.720;10.014;2023-04-01T07:58:29;6.60;99.90
38582;DHT22;24349;53.720;10.014;2023-04-01T08:04:19;6.70;99.90
38582;DHT22;24349;53.720;10.014;2023-04-01T08:12:32;6.80;99.90
38582;DHT22;24349;53.720;10.014;2023-04-01T08:15:07;6.80;99.90
38582;DHT22;24349;53.720;10.014;2023-04-01T08:20:45;6.70;99.90
38582;DHT22;24349;53.720;10.014;2023-04-01T08:23:24;6.70;99.90
38582;DHT22;24349;53.720;10.014;2023-04-01T08:26:02;6.60;99.90
38582;DHT22;24349;53.720;10.014;2023-04-01T08:28:54;6.60;99.90
38582;DHT22;24349;53.720;10.014;2023-04-01T08:31:47;6.60;99.90
38582;DHT22;24349;53.720;10.014;2023-04-01T08:34:15;6.50;99.90
38582;DHT22;24349;53.720;10.014;2023-04-01T08:36:47;6.60;99.90
38582;DHT22;24349;53.720;10.014;2023-04-01T08:39:20;6.80;99.90
38582;DHT22;24349;53.720;10.014;2023-04-01T08:59:09;6.80;99.90
38582;DHT22;24349;53.720;10.014;2023-04-01T09:04:52;6.80;99.90
38582;DHT22;24349;53.720;10.014;2023-04-01T09:18:59;6.90;99.90
38582;DHT22;24349;53.720;10.014;2023-04-01T09:31:08;7.00;99.90
38582;DHT22;24349;53.720;10.014;2023-04-01T10:02:53;7.10;99.90
38582;DHT22;24349;53.720;10.014;2023-04-01T10:18:52;7.20;99.90
38582;DHT22;24349;53.720;10.014;2023-04-01T10:33:35;7.50;99.90
38582;DHT22;24349;53.720;10.014;2023-04-01T10:55:55;7.10;99.90
38582;DHT22;24349;53.720;10.014;2023-04-01T11:07:02;7.20;99.90
38582;DHT22;24349;53.720;10.014;2023-04-01T11:34:00;7.30;99.90
38582;DHT22;24349;53.720;10.014;2023-04-01T11:36:54;7.50;99.90
38582;DHT22;24349;53.720;10.014;2023-04-01T11:41:30;7.30;99.90
38582;DHT22;24349;53.720;10.014;2023-04-01T11:52:10;7.00;99.90
38582;DHT22;24349;53.720;10.014;2023-04-01T11:55:10;7.00;99.90
38582;DHT22;24349;53.720;10.014;2023-04-01T12:06:25;6.90;99.90
38582;DHT22;24349;53.720;10.014;2023-04-01T12:09:46;6.80;99.90
38582;DHT22;24349;53.720;10.014;2023-04-01T12:30:53;6.50;99.90
38582;DHT22;24349;53.720;10.014;2023-04-01T12:36:20;6.50;99.90
38582;DHT22;24349;53.720;10.014;2023-04-01T12:41:52;6.40;99.90
38582;DHT22;24349;53.720;10.014;2023-04-01T12:44:33;6.50;99.90
38582;DHT22;24349;53.720;10.014;2023-04-01T12:47:17;6.60;99.90
38582;DHT22;24349;53.720;10.014;2023-04-01T13:03:46;6.40;99.90
38582;DHT22;24349;53.720;10.014;2023-04-01T13:17:54;6.60;99.90
38582;DHT22;24349;53.720;10.014;2023-04-01T13:29:23;6.60;99.90
38582;DHT22;24349;53.720;10.014;2023-04-01T13:56:50;6.40;99.90
38582;DHT22;24349;53.720;10.014;2023-04-01T14:02:24;6.40;99.90
38582;DHT22;24349;53.720;10.014;2023-04-01T14:05:12;6.40;99.90
38582;DHT22;24349;53.720;10.014;2023-04-01T14:07:56;6.40;99.90
38582;DHT22;24349;53.720;10.014;2023-04-01T14:10:25;6.40;99.90
38582;DHT22;24349;53.720;10.014;2023-04-01T14:12:58;6.30;99.90
38582;DHT22;24349;53.720;10.014;2023-04-01T14:15:40;6.20;99.90
38582;DHT22;24349;53.720;10.014;2023-04-01T14:18:27;6.20;99.90
38582;DHT22;24349;53.720;10.014;2023-04-01T14:29:24;6.20;99.90
38582;DHT22;24349;53.720;10.014;2023-04-01T14:32:00;6.20;99.90
38582;DHT22;24349;53.720;10.014;2023-04-01T14:43:20;6.00;99.90
38582;DHT22;24349;53.720;10.014;2023-04-01T14:48:59;6.10;99.90
38582;DHT22;24349;53.720;10.014;2023-04-01T14:51:34;6.10;99.90
38582;DHT22;24349;53.720;10.014;2023-04-01T14:54:13;6.10;99.90
38582;DHT22;24349;53.720;10.014;2023-04-01T14:56:49;6.00;99.90
38582;DHT22;24349;53.720;10.014;2023-04-01T14:59:26;6.10;99.90
38582;DHT22;24349;53.720;10.014;2023-04-01T15:26:57;5.80;99.90
38582;DHT22;24349;53.720;10.014;2023-04-01T15:34:46;5.70;99.90
38582;DHT22;24349;53.720;10.014;2023-04-01T15:38:02;5.80;99.90
38582;DHT22;24349;53.720;10.014;2023-04-01T15:40:46;5.80;99.90
38582;DHT22;24349;53.720;10.014;2023-04-01T15:54:57;5.70;99.90
38582;DHT22;24349;53.720;10.014;2023-04-01T16:00:57;5.60;99.90
38582;DHT22;24349;53.720;10.014;2023-04-01T16:12:19;5.70;99.90
38582;DHT22;24349;53.720;10.014;2023-04-01T16:24:15;5.50;99.90
38582;DHT22;24349;53.720;10.014;2023-04-01T16:26:21;5.50;99.90
38582;DHT22;24349;53.720;10.014;2023-04-01T16:37:10;5.40;99.90
38582;DHT22;24349;53.720;10.014;2023-04-01T16:39:43;5.40;99.90
38582;DHT22;24349;53.720;10.014;2023-04-01T16:50:19;5.30;99.90
38582;DHT22;24349;53.720;10.014;2023-04-01T16:53:14;5.20;99.90
38582;DHT22;24349;53.720;10.014;2023-04-01T17:01:12;5.20;99.90
38582;DHT22;24349;53.720;10.014;2023-04-01T17:03:46;5.30;99.90
38582;DHT22;24349;53.720;10.014;2023-04-01T17:06:27;5.30;99.90
38582;DHT22;24349;53.720;10.014;2023-04-01T17:11:30;5.10;99.90
38582;DHT22;24349;53.720;10.014;2023-04-01T17:14:25;5.10;99.90
38582;DHT22;24349;53.720;10.014;2023-04-01T17:22:56;5.20;99.90
38582;DHT22;24349;53.720;10.014;2023-04-01T17:25:45;5.20;99.90
38582;DHT22;24349;53.720;10.014;2023-04-01T17:31:26;5.10;99.90
38582;DHT22;24349;53.720;10.014;2023-04-01T17:34:13;5.10;99.90
38582;DHT22;24349;53.720;10.014;2023-04-01T17:36:44;5.00;99.90
38582;DHT22;24349;53.720;10.014;2023-04-01T17:41:57;4.90;99.90
38582;DHT22;24349;53.720;10.014;2023-04-01T17:47:52;4.90;99.90
38582;DHT22;24349;53.720;10.014;2023-04-01T17:50:19;4.90;99.90
38582;DHT22;24349;53.720;10.014;2023-04-01T17:53:11;4.80;99.90
38582;DHT22;24349;53.720;10.014;2023-04-01T17:58:22;4.70;99.90
38582;DHT22;24349;53.720;10.014;2023-04-01T18:04:08;4.70;99.90
38582;DHT22;24349;53.720;10.014;2023-04-01T18:12:51;4.70;99.90
38582;DHT22;24349;53.720;10.014;2023-04-01T18:20:40;4.60;99.90
38582;DHT22;24349;53.720;10.014;2023-04-01T18:25:55;4.50;99.90
38582;DHT22;24349;53.720;10.014;2023-04-01T18:41:50;4.60;99.90
38582;DHT22;24349;53.720;10.014;2023-04-01T18:44:45;4.50;99.90
38582;DHT22;24349;53.720;10.014;2023-04-01T18:50:22;4.50;99.90
38582;DHT22;24349;53.720;10.014;2023-04-01T18:55:59;4.40;99.90
38582;DHT22;24349;53.720;10.014;2023-04-01T19:03:34;4.40;99.90
38582;DHT22;24349;53.720;10.014;2023-04-01T19:06:26;4.40;99.90
38582;DHT22;24349;53.720;10.014;2023-04-01T19:08:54;4.30;99.90
38582;DHT22;24349;53.720;10.014;2023-04-01T19:11:43;4.30;99.90
38582;DHT22;24349;53.720;10.014;2023-04-01T19:17:38;4.20;99.90
38582;DHT22;24349;53.720;10.014;2023-04-01T19:20:33;4.20;99.90
38582;DHT22;24349;53.720;10.014;2023-04-01T19:25:38;4.20;99.90
38582;DHT22;24349;53.720;10.014;2023-04-01T19:28:28;4.20;99.90
38582;DHT22;24349;53.720;10.014;2023-04-01T19:33:48;4.00;99.90
38582;DHT22;24349;53.720;10.014;2023-04-01T19:44:54;3.80;99.90
38582;DHT22;24349;53.720;10.014;2023-04-01T19:52:47;3.70;99.90
38582;DHT22;24349;53.720;10.014;2023-04-01T20:01:17;3.70;99.90
38582;DHT22;24349;53.720;10.014;2023-04-01T20:03:54;3.60;99.90
38582;DHT22;24349;53.720;10.014;2023-04-01T20:14:57;3.30;99.90
38582;DHT22;24349;53.720;10.014;2023-04-01T20:17:38;3.20;99.90
38582;DHT22;24349;53.720;10.014;2023-04-01T20:25:48;3.10;99.90
38582;DHT22;24349;53.720;10.014;2023-04-01T20:36:39;2.90;99.90
38582;DHT22;24349;53.720;10.014;2023-04-01T20:42:46;2.80;99.90
38582;DHT22;24349;53.720;10.014;2023-04-01T20:50:55;2.70;99.90
38582;DHT22;24349;53.720;10.014;2023-04-01T20:53:29;2.70;99.90
38582;DHT22;24349;53.720;10.014;2023-04-01T20:56:17;2.70;99.90
38582;DHT22;24349;53.720;10.014;2023-04-01T21:01:32;2.70;99.90
38582;DHT22;24349;53.720;10.014;2023-04-01T21:04:26;2.70;99.90
38582;DHT22;24349;53.720;10.014;2023-04-01T21:07:21;2.60;99.90
38582;DHT22;24349;53.720;10.014;2023-04-01T21:10:12;2.60;99.90
38582;DHT22;24349;53.720;10.014;2023-04-01T21:13:02;2.60;99.90
38582;DHT22;24349;53.720;10.014;2023-04-01T21:18:32;2.60;99.90
38582;DHT22;24349;53.720;10.014;2023-04-01T21:23:56;2.50;99.90
38582;DHT22;24349;53.720;10.014;2023-04-01T21:32:14;2.40;99.90
38582;DHT22;24349;53.720;10.014;2023-04-01T21:37:28;2.40;99.90
38582;DHT22;24349;53.720;10.014;2023-04-01T21:43:25;2.40;99.90
38582;DHT22;24349;53.720;10.014;2023-04-01T22:00:17;2.30;99.90
38582;DHT22;24349;53.720;10.014;2023-04-01T22:06:26;2.20;99.90
38582;DHT22;24349;53.720;10.014;2023-04-01T22:09:03;2.20;99.90
38582;DHT22;24349;53.720;10.014;2023-04-01T22:11:37;2.20;99.90
38582;DHT22;24349;53.720;10.014;2023-04-01T22:14:27;2.20;99.90
38582;DHT22;24349;53.720;10.014;2023-04-01T22:16:58;2.20;99.90
38582;DHT22;24349;53.720;10.014;2023-04-01T22:22:27;2.20;99.90
38582;DHT22;24349;53.720;10.014;2023-04-01T22:25:14;2.20;99.90
38582;DHT22;24349;53.720;10.014;2023-04-01T22:27:54;2.10;99.90
38582;DHT22;24349;53.720;10.014;2023-04-01T22:30:24;2.10;99.90
38582;DHT22;24349;53.720;10.014;2023-04-01T22:33:26;2.10;99.90
38582;DHT22;24349;53.720;10.014;2023-04-01T22:36:13;2.10;99.90
38582;DHT22;24349;53.720;10.014;2023-04-01T22:49:52;2.00;99.90
38582;DHT22;24349;53.720;10.014;2023-04-01T22:52:29;2.00;99.90
38582;DHT22;24349;53.720;10.014;2023-04-01T22:55:00;2.00;99.90
38582;DHT22;24349;53.720;10.014;2023-04-01T22:57:47;2.00;99.90
38582;DHT22;24349;53.720;10.014;2023-04-01T23:00:41;2.00;99.90
38582;DHT22;24349;53.720;10.014;2023-04-01T23:03:32;2.00;99.90
38582;DHT22;24349;53.720;10.014;2023-04-01T23:06:00;2.00;99.90
38582;DHT22;24349;53.720;10.014;2023-04-01T23:11:46;2.00;99.90
38582;DHT22;24349;53.720;10.014;2023-04-01T23:27:56;2.00;99.70
38582;DHT22;24349;53.720;10.014;2023-04-01T23:38:14;1.90;99.90
38582;DHT22;24349;53.720;10.014;2023-04-01T23:40:40;1.90;99.90
38582;DHT22;24349;53.720;10.014;2023-04-01T23:43:39;1.90;99.90
38582;DHT22;24349;53.720;10.014;2023-04-01T23:46:07;2.00;99.90
38582;DHT22;24349;53.720;10.014;2023-04-01T23:48:36;1.90;99.90
38582;DHT22;24349;53.720;10.014;2023-04-01T23:51:03;1.90;99.90
38582;DHT22;24349;53.720;10.014;2023-04-01T23:53:44;1.90;99.90
38582;DHT22;24349;53.720;10.014;2023-04-01T23:56:10;1.90;99.90
38582;DHT22;24349;53.720;10.014;2023-04-01T23:58:48;2.00;99.90
